createdAt,value
2022-08-20T00:01:24.861Z,15.90
2022-08-20T00:04:08.019Z,21.60
2022-08-20T00:06:52.078Z,22.77
2022-08-20T00:09:36.907Z,19.83
2022-08-20T00:12:21.547Z,18.70
2022-08-20T00:15:07.634Z,18.63
2022-08-20T00:17:51.687Z,19.83
2022-08-20T00:20:38.155Z,23.63
2022-08-20T00:23:23.540Z,21.80
2022-08-20T00:26:08.466Z,18.80
2022-08-20T00:28:53.718Z,22.20
2022-08-20T00:31:36.797Z,24.50
2022-08-20T00:34:21.285Z,19.33
2022-08-20T00:37:06.926Z,19.97
2022-08-20T00:39:50.227Z,22.10
2022-08-20T00:42:42.481Z,23.27
2022-08-20T00:45:32.407Z,22.77
2022-08-20T00:48:15.470Z,20.73
2022-08-20T00:51:03.486Z,19.60
2022-08-20T00:53:47.925Z,20.47
2022-08-20T00:56:33.476Z,23.67
2022-08-20T00:59:19.182Z,23.67
2022-08-20T01:02:07.655Z,18.30
2022-08-20T01:04:52.586Z,24.90
2022-08-20T01:07:35.914Z,19.00
2022-08-20T01:10:24.384Z,17.93
2022-08-20T01:13:11.002Z,21.63
2022-08-20T01:15:57.302Z,21.80
2022-08-20T01:18:42.563Z,19.87
2022-08-20T01:21:28.314Z,26.60
2022-08-20T01:24:21.282Z,17.43
2022-08-20T01:27:07.263Z,18.63
2022-08-20T01:29:50.861Z,23.37
2022-08-20T01:32:34.040Z,17.33
2022-08-20T01:35:21.549Z,21.17
2022-08-20T01:38:05.263Z,21.60
2022-08-20T01:41:27.196Z,20.90
2022-08-20T01:44:17.025Z,21.37
2022-08-20T01:47:12.430Z,19.13
2022-08-20T01:50:02.559Z,26.23
2022-08-20T01:52:53.219Z,27.33
2022-08-20T01:55:36.467Z,20.67
2022-08-20T01:58:19.938Z,20.77
2022-08-20T02:01:05.362Z,24.00
2022-08-20T02:03:48.482Z,18.13
2022-08-20T02:06:35.344Z,21.87
2022-08-20T02:09:18.754Z,19.57
2022-08-20T02:12:03.156Z,24.27
2022-08-20T02:14:49.180Z,27.23
2022-08-20T02:17:33.698Z,25.47
2022-08-20T02:20:20.029Z,20.27
2022-08-20T02:23:05.353Z,28.47
2022-08-20T02:25:49.495Z,22.57
2022-08-20T02:28:32.716Z,18.57
2022-08-20T02:31:15.793Z,19.80
2022-08-20T02:34:14.762Z,19.60
2022-08-20T02:37:04.894Z,21.73
2022-08-20T02:39:48.191Z,25.27
2022-08-20T02:42:31.364Z,25.70
2022-08-20T02:45:19.037Z,17.83
2022-08-20T02:48:02.301Z,26.57
2022-08-20T02:50:46.758Z,28.03
2022-08-20T02:53:31.922Z,24.20
2022-08-20T02:56:15.598Z,19.27
2022-08-20T02:58:58.702Z,18.50
2022-08-20T03:01:41.837Z,20.33
2022-08-20T03:04:26.144Z,22.10
2022-08-20T03:07:11.601Z,18.87
2022-08-20T03:09:54.654Z,25.83
2022-08-20T03:12:38.472Z,39.47
2022-08-20T03:15:22.161Z,28.47
2022-08-20T03:18:07.552Z,20.83
2022-08-20T03:20:51.307Z,24.87
2022-08-20T03:23:38.188Z,26.03
2022-08-20T03:26:23.609Z,23.37
2022-08-20T03:29:06.739Z,25.13
2022-08-20T03:31:49.842Z,25.10
2022-08-20T03:34:33.378Z,24.93
2022-08-20T03:37:16.486Z,21.50
2022-08-20T03:40:01.326Z,24.77
2022-08-20T03:42:44.574Z,28.90
2022-08-20T03:45:29.908Z,23.63
2022-08-20T03:48:16.396Z,28.10
2022-08-20T03:51:01.001Z,29.03
2022-08-20T03:53:44.168Z,29.30
2022-08-20T03:56:29.560Z,24.17
2022-08-20T03:59:12.616Z,26.07
2022-08-20T04:01:56.325Z,21.90
2022-08-20T04:04:40.386Z,24.07
2022-08-20T04:07:27.568Z,25.47
2022-08-20T04:10:12.762Z,25.60
2022-08-20T04:12:57.264Z,24.40
2022-08-20T04:15:41.378Z,22.93
2022-08-20T04:18:26.830Z,27.27
2022-08-20T04:21:09.962Z,25.83
2022-08-20T04:23:53.544Z,22.77
2022-08-20T04:26:37.309Z,28.53
2022-08-20T04:29:21.980Z,26.87
2022-08-20T04:32:06.787Z,25.53
2022-08-20T04:34:52.206Z,35.83
2022-08-20T04:37:35.468Z,33.40
2022-08-20T04:40:37.983Z,26.13
2022-08-20T04:43:23.194Z,32.57
2022-08-20T04:46:10.238Z,41.43
2022-08-20T04:48:53.397Z,25.03
2022-08-20T04:51:37.142Z,22.90
2022-08-20T04:54:20.297Z,21.40
2022-08-20T04:57:03.401Z,20.30
2022-08-20T04:59:46.821Z,25.87
2022-08-20T05:02:31.501Z,26.27
2022-08-20T05:05:14.695Z,28.00
2022-08-20T05:07:58.357Z,29.17
2022-08-20T05:10:42.842Z,31.20
2022-08-20T05:13:27.468Z,30.53
2022-08-20T05:16:10.853Z,41.80
2022-08-20T05:18:58.544Z,29.47
2022-08-20T05:21:42.144Z,30.47
2022-08-20T05:24:25.571Z,23.83
2022-08-20T05:27:09.370Z,32.20
2022-08-20T05:30:07.185Z,29.57
2022-08-20T05:32:53.282Z,24.63
2022-08-20T05:35:39.653Z,32.77
2022-08-20T05:38:28.552Z,41.67
2022-08-20T05:41:11.641Z,30.23
2022-08-20T05:44:13.800Z,36.33
2022-08-20T05:46:56.947Z,32.67
2022-08-20T05:49:40.211Z,23.10
2022-08-20T05:52:24.744Z,27.03
2022-08-20T05:55:09.958Z,31.20
2022-08-20T05:57:58.563Z,24.13
2022-08-20T06:00:41.926Z,33.33
2022-08-20T06:03:50.731Z,29.00
2022-08-20T06:06:44.890Z,30.10
2022-08-20T06:09:32.745Z,24.60
2022-08-20T06:12:16.842Z,29.40
2022-08-20T06:15:00.185Z,26.23
2022-08-20T06:17:43.320Z,25.27
2022-08-20T06:20:28.965Z,30.10
2022-08-20T06:23:12.211Z,30.83
2022-08-20T06:25:56.664Z,32.53
2022-08-20T06:28:39.754Z,36.80
2022-08-20T06:31:23.192Z,26.17
2022-08-20T06:34:07.512Z,27.77
2022-08-20T06:36:50.582Z,27.33
2022-08-20T06:39:33.771Z,23.40
2022-08-20T06:42:21.025Z,22.57
2022-08-20T06:45:05.904Z,29.50
2022-08-20T06:47:49.429Z,22.63
2022-08-20T06:50:43.202Z,27.23
2022-08-20T06:53:30.819Z,21.50
2022-08-20T06:56:13.891Z,21.10
2022-08-20T06:58:58.338Z,21.17
2022-08-20T07:01:41.535Z,18.23
2022-08-20T07:04:25.844Z,19.30
2022-08-20T07:07:17.284Z,20.03
2022-08-20T07:10:01.449Z,19.57
2022-08-20T07:12:46.541Z,15.93
2022-08-20T07:15:31.064Z,18.17
2022-08-20T07:18:15.265Z,19.57
2022-08-20T07:20:59.151Z,21.93
2022-08-20T07:23:42.396Z,19.90
2022-08-20T07:26:25.658Z,22.37
2022-08-20T07:29:08.785Z,16.53
2022-08-20T07:32:10.614Z,22.40
2022-08-20T07:34:53.746Z,22.27
2022-08-20T07:37:41.440Z,14.10
2022-08-20T07:40:29.146Z,19.37
2022-08-20T07:43:12.407Z,15.50
2022-08-20T07:45:57.674Z,24.10
2022-08-20T07:48:46.350Z,26.33
2022-08-20T07:51:29.814Z,20.10
2022-08-20T07:54:12.890Z,19.38
2022-08-20T07:56:55.998Z,15.45
2022-08-20T07:59:39.509Z,15.82
2022-08-20T08:02:22.963Z,17.35
2022-08-20T08:05:08.826Z,15.75
2022-08-20T08:07:52.503Z,11.95
2022-08-20T08:10:37.730Z,11.73
2022-08-20T08:13:20.999Z,29.98
2022-08-20T08:16:06.889Z,16.38
2022-08-20T08:18:55.446Z,13.85
2022-08-20T08:21:40.218Z,16.85
2022-08-20T08:24:27.839Z,17.13
2022-08-20T08:27:11.941Z,10.88
2022-08-20T08:29:55.055Z,13.13
2022-08-20T08:32:58.698Z,17.70
2022-08-20T08:35:42.743Z,20.65
2022-08-20T08:38:27.852Z,15.27
2022-08-20T08:41:17.682Z,12.38
2022-08-20T08:44:07.600Z,17.63
2022-08-20T08:46:57.659Z,15.05
2022-08-20T08:49:41.201Z,14.70
2022-08-20T08:52:27.691Z,17.08
2022-08-20T08:55:17.429Z,13.38
2022-08-20T08:58:04.465Z,12.45
2022-08-20T09:01:02.051Z,15.13
2022-08-20T09:03:51.875Z,15.90
2022-08-20T09:06:35.070Z,13.88
2022-08-20T09:09:21.325Z,14.82
2022-08-20T09:12:09.604Z,12.38
2022-08-20T09:14:53.521Z,13.68
2022-08-20T09:17:36.609Z,20.30
2022-08-20T09:20:20.365Z,17.70
2022-08-20T09:23:09.151Z,22.42
2022-08-20T09:25:52.277Z,16.23
2022-08-20T09:28:37.196Z,22.08
2022-08-20T09:31:20.455Z,20.83
2022-08-20T09:34:06.322Z,14.32
2022-08-20T09:36:49.355Z,14.88
2022-08-20T09:39:32.467Z,17.25
2022-08-20T09:42:17.423Z,16.20
2022-08-20T09:45:02.039Z,12.82
2022-08-20T09:47:51.778Z,14.20
2022-08-20T09:50:44.071Z,10.85
2022-08-20T09:53:27.245Z,14.07
2022-08-20T09:56:11.078Z,21.80
2022-08-20T09:58:58.957Z,17.65
2022-08-20T10:01:46.891Z,15.40
2022-08-20T10:04:30.089Z,11.63
2022-08-20T10:07:13.163Z,11.55
2022-08-20T10:09:59.099Z,19.05
2022-08-20T10:12:43.242Z,19.52
2022-08-20T10:15:26.371Z,11.90
2022-08-20T10:18:12.303Z,18.70
2022-08-20T10:20:55.567Z,17.80
2022-08-20T10:23:38.726Z,18.75
2022-08-20T10:26:21.839Z,14.80
2022-08-20T10:29:04.984Z,15.82
2022-08-20T10:31:48.107Z,13.40
2022-08-20T10:34:32.521Z,15.90
2022-08-20T10:37:17.186Z,12.75
2022-08-20T10:40:00.382Z,27.02
2022-08-20T10:42:43.867Z,18.77
2022-08-20T10:45:27.003Z,13.52
2022-08-20T10:48:10.117Z,19.20
2022-08-20T10:50:54.721Z,13.13
2022-08-20T10:53:37.947Z,24.98
2022-08-20T10:56:20.982Z,14.40
2022-08-20T10:59:04.121Z,12.52
2022-08-20T11:01:47.260Z,11.88
2022-08-20T11:04:30.353Z,11.68
2022-08-20T11:07:18.746Z,28.08
2022-08-20T11:10:02.520Z,21.02
2022-08-20T11:12:46.416Z,12.60
2022-08-20T11:15:29.755Z,19.10
2022-08-20T11:18:14.787Z,14.97
2022-08-20T11:20:57.986Z,18.30
2022-08-20T11:23:42.486Z,15.50
2022-08-20T11:26:26.636Z,22.67
2022-08-20T11:29:09.736Z,23.47
2022-08-20T11:31:53.061Z,18.80
2022-08-20T11:34:36.108Z,18.90
2022-08-20T11:37:20.909Z,18.33
2022-08-20T11:40:08.123Z,18.73
2022-08-20T11:43:13.201Z,20.13
2022-08-20T11:45:57.071Z,22.40
2022-08-20T11:48:40.191Z,29.00
2022-08-20T11:51:23.309Z,17.83
2022-08-20T11:54:07.049Z,16.20
2022-08-20T11:56:52.655Z,16.60
2022-08-20T11:59:36.039Z,15.63
2022-08-20T12:02:19.264Z,16.67
2022-08-20T12:05:02.426Z,15.30
2022-08-20T12:07:45.541Z,20.07
2022-08-20T12:10:29.038Z,18.47
2022-08-20T12:13:13.483Z,18.23
2022-08-20T12:15:56.745Z,16.30
2022-08-20T12:18:39.919Z,16.07
2022-08-20T12:21:22.998Z,23.83
2022-08-20T12:24:06.380Z,18.77
2022-08-20T12:26:49.437Z,16.43
2022-08-20T12:29:35.902Z,17.07
2022-08-20T12:32:20.777Z,23.80
2022-08-20T12:35:04.372Z,26.70
2022-08-20T12:37:47.585Z,31.80
2022-08-20T12:40:32.227Z,28.67
2022-08-20T12:43:16.282Z,24.37
2022-08-20T12:46:00.802Z,25.17
2022-08-20T12:48:44.009Z,41.20
2022-08-20T12:51:27.130Z,39.00
2022-08-20T12:54:10.258Z,39.00
2022-08-20T12:56:53.765Z,35.03
2022-08-20T12:59:36.906Z,35.43
2022-08-20T13:02:21.363Z,27.77
2022-08-20T13:05:05.529Z,25.63
2022-08-20T13:07:49.487Z,29.07
2022-08-20T13:10:36.030Z,26.93
2022-08-20T13:13:20.966Z,26.50
2022-08-20T13:16:04.922Z,26.13
2022-08-20T13:18:49.348Z,28.90
2022-08-20T13:21:32.419Z,38.27
2022-08-20T13:24:15.462Z,31.30
2022-08-20T13:27:05.945Z,32.80
2022-08-20T13:29:50.097Z,32.17
2022-08-20T13:32:34.007Z,37.70
2022-08-20T13:35:19.771Z,38.67
2022-08-20T13:38:02.883Z,45.03
2022-08-20T13:40:48.920Z,45.70
2022-08-20T13:43:32.146Z,34.50
2022-08-20T13:46:15.292Z,43.20
2022-08-20T13:49:01.033Z,29.17
2022-08-20T13:51:45.688Z,29.00
2022-08-20T13:54:35.281Z,26.40
2022-08-20T13:57:19.944Z,25.97
2022-08-20T14:00:03.557Z,31.07
2022-08-20T14:02:46.926Z,32.67
2022-08-20T14:05:30.947Z,25.17
2022-08-20T14:08:18.693Z,27.73
2022-08-20T14:11:01.950Z,41.43
2022-08-20T14:13:45.039Z,40.33
2022-08-20T14:16:33.313Z,33.90
2022-08-20T14:19:18.668Z,33.30
2022-08-20T14:22:01.758Z,38.57
2022-08-20T14:24:46.558Z,38.87
2022-08-20T14:27:31.331Z,33.80
2022-08-20T14:30:16.578Z,34.03
2022-08-20T14:32:59.740Z,38.67
2022-08-20T14:35:42.857Z,31.27
2022-08-20T14:38:25.916Z,33.23
2022-08-20T14:41:10.416Z,34.63
2022-08-20T14:43:53.482Z,31.80
2022-08-20T14:46:36.522Z,43.20
2022-08-20T14:49:19.626Z,33.60
2022-08-20T14:52:02.705Z,36.50
2022-08-20T14:54:46.966Z,27.93
2022-08-20T14:57:33.760Z,32.00
2022-08-20T15:00:20.529Z,33.27
2022-08-20T15:03:03.909Z,36.30
2022-08-20T15:05:46.986Z,32.37
2022-08-20T15:08:33.626Z,35.73
2022-08-20T15:11:16.738Z,33.83
2022-08-20T15:14:01.186Z,38.97
2022-08-20T15:16:45.000Z,37.93
2022-08-20T15:19:28.160Z,31.40
2022-08-20T15:22:11.244Z,34.97
2022-08-20T15:24:55.561Z,33.10
2022-08-20T15:27:40.958Z,33.47
2022-08-20T15:30:26.176Z,25.80
2022-08-20T15:33:10.136Z,27.83
2022-08-20T15:35:53.261Z,33.80
2022-08-20T15:38:36.587Z,33.33
2022-08-20T15:41:19.754Z,31.43
2022-08-20T15:44:02.924Z,33.00
2022-08-20T15:46:47.418Z,35.00
2022-08-20T15:49:31.098Z,37.17
2022-08-20T15:52:14.557Z,34.53
2022-08-20T15:54:57.730Z,34.43
2022-08-20T15:57:51.043Z,32.10
2022-08-20T16:00:41.785Z,32.43
2022-08-20T16:03:40.372Z,33.03
2022-08-20T16:06:26.684Z,35.47
2022-08-20T16:09:26.386Z,41.47
2022-08-20T16:12:12.672Z,30.53
2022-08-20T16:15:02.458Z,37.10
2022-08-20T16:17:49.528Z,34.33
2022-08-20T16:20:41.158Z,39.00
2022-08-20T16:23:30.070Z,34.47
2022-08-20T16:26:33.474Z,27.67
2022-08-20T16:29:21.131Z,33.20
2022-08-20T16:32:10.346Z,30.80
2022-08-20T16:35:20.597Z,30.60
2022-08-20T16:38:20.837Z,25.23
2022-08-20T16:41:12.453Z,31.30
2022-08-20T16:44:02.125Z,37.73
2022-08-20T16:46:53.319Z,30.40
2022-08-20T16:49:40.018Z,27.40
2022-08-20T16:52:23.455Z,31.40
2022-08-20T16:55:08.507Z,22.50
2022-08-20T16:57:52.934Z,31.43
2022-08-20T17:00:44.789Z,26.60
2022-08-20T17:03:38.630Z,25.73
2022-08-20T17:06:30.715Z,27.57
2022-08-20T17:09:20.198Z,30.70
2022-08-20T17:12:17.787Z,30.93
2022-08-20T17:15:00.839Z,30.53
2022-08-20T17:17:43.955Z,30.33
2022-08-20T17:20:29.224Z,27.10
2022-08-20T17:23:18.507Z,27.53
2022-08-20T17:26:05.905Z,31.10
2022-08-20T17:28:56.104Z,30.67
2022-08-20T17:31:42.073Z,29.53
2022-08-20T17:34:27.859Z,34.77
2022-08-20T17:37:20.405Z,29.70
2022-08-20T17:40:18.288Z,28.60
2022-08-20T17:43:03.702Z,37.43
2022-08-20T17:45:48.333Z,36.60
2022-08-20T17:48:37.056Z,33.57
2022-08-20T17:51:22.588Z,37.50
2022-08-20T17:54:13.135Z,39.07
2022-08-20T17:57:00.420Z,33.17
2022-08-20T18:00:00.622Z,27.47
2022-08-20T18:02:46.704Z,27.53
2022-08-20T18:05:35.807Z,30.53
2022-08-20T18:08:31.105Z,30.87
2022-08-20T18:11:22.257Z,29.77
2022-08-20T18:14:20.224Z,29.50
2022-08-20T18:17:15.681Z,28.67
2022-08-20T18:20:11.385Z,26.83
2022-08-20T18:22:58.601Z,25.03
2022-08-20T18:25:46.939Z,17.50
2022-08-20T18:28:38.367Z,20.83
2022-08-20T18:31:30.781Z,15.33
2022-08-20T18:34:16.981Z,12.97
2022-08-20T18:37:05.529Z,14.67
2022-08-20T18:39:51.090Z,14.33
2022-08-20T18:42:37.249Z,19.93
2022-08-20T18:45:30.349Z,14.03
2022-08-20T18:48:22.565Z,16.90
2022-08-20T18:51:11.835Z,16.03
2022-08-20T18:53:56.499Z,17.73
2022-08-20T18:56:43.191Z,15.10
2022-08-20T18:59:26.472Z,13.50
2022-08-20T19:02:23.652Z,17.93
2022-08-20T19:05:09.983Z,17.87
2022-08-20T19:07:55.077Z,22.53
2022-08-20T19:10:49.289Z,16.07
2022-08-20T19:13:55.998Z,17.33
2022-08-20T19:16:43.239Z,18.63
2022-08-20T19:19:32.246Z,17.50
2022-08-20T19:22:23.840Z,16.47
2022-08-20T19:25:08.479Z,24.33
2022-08-20T19:27:53.749Z,19.33
2022-08-20T19:30:44.795Z,18.13
2022-08-20T19:33:29.846Z,17.77
2022-08-20T19:36:15.021Z,19.57
2022-08-20T19:39:01.404Z,16.80
2022-08-20T19:41:49.534Z,21.63
2022-08-20T19:44:39.453Z,17.10
2022-08-20T19:47:30.489Z,25.63
2022-08-20T19:50:20.734Z,21.37
2022-08-20T19:53:15.457Z,23.03
2022-08-20T19:56:01.227Z,18.33
2022-08-20T19:58:45.031Z,19.23
2022-08-20T20:01:29.770Z,15.60
2022-08-20T20:04:18.578Z,20.43
2022-08-20T20:07:01.682Z,24.87
2022-08-20T20:09:45.202Z,21.77
2022-08-20T20:12:30.070Z,20.07
2022-08-20T20:15:13.351Z,21.47
2022-08-20T20:17:59.636Z,23.40
2022-08-20T20:20:57.500Z,17.50
2022-08-20T20:23:47.002Z,22.43
2022-08-20T20:26:32.612Z,27.30
2022-08-20T20:29:24.835Z,25.67
2022-08-20T20:32:16.746Z,21.67
2022-08-20T20:35:03.480Z,23.73
2022-08-20T20:37:50.889Z,23.50
2022-08-20T20:40:43.737Z,26.07
2022-08-20T20:43:32.295Z,26.20
2022-08-20T20:46:18.826Z,22.30
2022-08-20T20:49:12.003Z,27.40
2022-08-20T20:52:00.646Z,24.60
2022-08-20T20:54:45.635Z,21.73
2022-08-20T20:57:38.380Z,26.40
2022-08-20T21:00:24.717Z,21.83
2022-08-20T21:03:07.898Z,24.07
2022-08-20T21:05:51.038Z,24.90
2022-08-20T21:08:36.141Z,25.93
2022-08-20T21:11:19.320Z,22.13
2022-08-20T21:14:03.771Z,24.33
2022-08-20T21:16:46.991Z,26.83
2022-08-20T21:19:30.799Z,22.10
2022-08-20T21:22:14.401Z,22.17
2022-08-20T21:24:58.867Z,24.90
2022-08-20T21:27:45.626Z,23.27
2022-08-20T21:30:29.593Z,20.57
2022-08-20T21:33:12.646Z,19.77
2022-08-20T21:35:56.899Z,20.40
2022-08-20T21:38:40.024Z,20.17
2022-08-20T21:41:29.488Z,20.70
2022-08-20T21:44:21.152Z,18.83
2022-08-20T21:47:05.360Z,20.23
2022-08-20T21:49:48.445Z,19.40
2022-08-20T21:52:31.615Z,33.03
2022-08-20T21:55:15.708Z,20.60
2022-08-20T21:58:00.247Z,17.57
2022-08-20T22:00:52.460Z,21.73
2022-08-20T22:03:38.914Z,19.03
2022-08-20T22:06:24.667Z,18.80
2022-08-20T22:09:07.819Z,25.33
2022-08-20T22:11:54.255Z,18.97
2022-08-20T22:14:40.333Z,24.93
2022-08-20T22:17:23.356Z,21.03
2022-08-20T22:20:07.223Z,21.37
2022-08-20T22:22:50.332Z,19.57
2022-08-20T22:25:34.826Z,21.40
2022-08-20T22:28:18.393Z,24.67
2022-08-20T22:31:03.608Z,19.57
2022-08-20T22:33:46.673Z,23.90
2022-08-20T22:36:30.466Z,21.50
2022-08-20T22:39:13.594Z,21.23
2022-08-20T22:41:56.798Z,22.67
2022-08-20T22:44:39.855Z,20.97
2022-08-20T22:47:27.852Z,19.67
2022-08-20T22:50:13.238Z,19.63
2022-08-20T22:52:56.622Z,22.10
2022-08-20T22:55:40.179Z,20.23
2022-08-20T22:58:30.430Z,25.03
2022-08-20T23:01:14.891Z,19.03
2022-08-20T23:04:05.718Z,20.77
2022-08-20T23:06:48.840Z,24.93
2022-08-20T23:09:32.195Z,23.70
2022-08-20T23:12:15.304Z,20.13
2022-08-20T23:14:58.481Z,21.63
2022-08-20T23:17:41.896Z,20.50
2022-08-20T23:20:26.813Z,27.33
2022-08-20T23:23:10.542Z,22.03
2022-08-20T23:25:54.433Z,26.67
2022-08-20T23:28:37.528Z,34.17
2022-08-20T23:31:20.707Z,26.80
2022-08-20T23:34:03.864Z,34.53
2022-08-20T23:36:49.419Z,29.63
2022-08-20T23:39:32.572Z,29.47
2022-08-20T23:42:15.969Z,30.83
2022-08-20T23:44:59.052Z,26.57
2022-08-20T23:47:42.214Z,32.60
2022-08-20T23:50:27.368Z,30.60
2022-08-20T23:53:11.819Z,30.43
2022-08-20T23:55:55.059Z,27.27
2022-08-20T23:58:38.256Z,26.80
